sensor_id;sensor_type;location;lat;lon;timestamp;pressure;altitude;pressure_sealevel;temperature;humidity
48517;BME280;34310;51.904;4.256;2023-02-12T00:01:08;103946.41;;;15.19;58.45
48517;BME280;34310;51.904;4.256;2023-02-12T00:03:36;103946.25;;;15.17;58.21
48517;BME280;34310;51.904;4.256;2023-02-12T00:06:05;103946.25;;;15.17;58.32
48517;BME280;34310;51.904;4.256;2023-02-12T00:08:33;103942.72;;;15.17;58.19
48517;BME280;34310;51.904;4.256;2023-02-12T00:11:13;103938.28;;;15.16;58.31
48517;BME280;34310;51.904;4.256;2023-02-12T00:13:41;103939.22;;;15.16;58.12
48517;BME280;34310;51.904;4.256;2023-02-12T00:16:10;103936.47;;;15.15;58.13
48517;BME280;34310;51.904;4.256;2023-02-12T00:18:39;103944.25;;;15.15;58.08
48517;BME280;34310;51.904;4.256;2023-02-12T00:21:06;103951.91;;;15.13;58.32
48517;BME280;34310;51.904;4.256;2023-02-12T00:23:37;103945.94;;;15.14;57.97
48517;BME280;34310;51.904;4.256;2023-02-12T00:26:06;103951.00;;;15.13;58.21
48517;BME280;34310;51.904;4.256;2023-02-12T00:28:34;103944.88;;;15.12;58.04
48517;BME280;34310;51.904;4.256;2023-02-12T00:31:16;103951.75;;;15.12;58.05
48517;BME280;34310;51.904;4.256;2023-02-12T00:33:44;103952.69;;;15.12;57.96
48517;BME280;34310;51.904;4.256;2023-02-12T00:36:14;103955.13;;;15.11;58.14
48517;BME280;34310;51.904;4.256;2023-02-12T00:38:42;103952.53;;;15.11;58.08
48517;BME280;34310;51.904;4.256;2023-02-12T00:41:10;103952.53;;;15.11;58.08
48517;BME280;34310;51.904;4.256;2023-02-12T00:43:37;103944.41;;;15.08;58.46
48517;BME280;34310;51.904;4.256;2023-02-12T00:46:05;103934.16;;;15.09;58.87
48517;BME280;34310;51.904;4.256;2023-02-12T00:48:34;103943.81;;;15.10;59.23
48517;BME280;34310;51.904;4.256;2023-02-12T00:51:02;103941.50;;;15.13;59.40
48517;BME280;34310;51.904;4.256;2023-02-12T00:53:30;103941.50;;;15.13;59.71
48517;BME280;34310;51.904;4.256;2023-02-12T00:55:58;103945.34;;;15.17;59.46
48517;BME280;34310;51.904;4.256;2023-02-12T00:58:25;103936.59;;;15.16;59.75
48517;BME280;34310;51.904;4.256;2023-02-12T01:00:53;103939.38;;;15.18;59.37
48517;BME280;34310;51.904;4.256;2023-02-12T01:03:21;103939.38;;;15.18;59.29
48517;BME280;34310;51.904;4.256;2023-02-12T01:05:48;103935.84;;;15.17;58.81
48517;BME280;34310;51.904;4.256;2023-02-12T01:08:16;103935.06;;;15.18;58.50
48517;BME280;34310;51.904;4.256;2023-02-12T01:10:43;103940.44;;;15.20;58.78
48517;BME280;34310;51.904;4.256;2023-02-12T01:13:14;103938.75;;;15.21;58.65
48517;BME280;34310;51.904;4.256;2023-02-12T01:15:41;103930.03;;;15.20;58.43
48517;BME280;34310;51.904;4.256;2023-02-12T01:18:09;103938.00;;;15.22;58.57
48517;BME280;34310;51.904;4.256;2023-02-12T01:20:39;103936.31;;;15.22;58.52
48517;BME280;34310;51.904;4.256;2023-02-12T01:23:06;103945.03;;;15.23;58.64
48517;BME280;34310;51.904;4.256;2023-02-12T01:25:34;103942.44;;;15.23;58.82
48517;BME280;34310;51.904;4.256;2023-02-12T01:28:03;103946.09;;;15.25;59.02
48517;BME280;34310;51.904;4.256;2023-02-12T01:30:31;103932.16;;;15.24;58.83
48517;BME280;34310;51.904;4.256;2023-02-12T01:32:58;103945.34;;;15.26;59.11
48517;BME280;34310;51.904;4.256;2023-02-12T01:35:26;103941.81;;;15.25;59.23
48517;BME280;34310;51.904;4.256;2023-02-12T01:37:54;103940.91;;;15.25;59.25
48517;BME280;34310;51.904;4.256;2023-02-12T01:40:24;103934.94;;;15.26;59.36
48517;BME280;34310;51.904;4.256;2023-02-12T01:42:51;103938.44;;;15.26;59.53
48517;BME280;34310;51.904;4.256;2023-02-12T01:47:49;103932.31;;;15.26;59.43
48517;BME280;34310;51.904;4.256;2023-02-12T01:50:18;103940.13;;;15.26;59.28
48517;BME280;34310;51.904;4.256;2023-02-12T01:52:54;103937.53;;;15.26;59.33
48517;BME280;34310;51.904;4.256;2023-02-12T01:55:23;103935.84;;;15.26;59.45
48517;BME280;34310;51.904;4.256;2023-02-12T01:57:51;103939.38;;;15.27;59.24
48517;BME280;34310;51.904;4.256;2023-02-12T02:00:22;103941.19;;;15.28;59.17
48517;BME280;34310;51.904;4.256;2023-02-12T02:02:56;103944.56;;;15.27;59.33
48517;BME280;34310;51.904;4.256;2023-02-12T02:08:01;103941.19;;;15.28;59.10
48517;BME280;34310;51.904;4.256;2023-02-12T02:10:29;103953.59;;;15.30;58.94
48517;BME280;34310;51.904;4.256;2023-02-12T02:12:57;103941.34;;;15.29;59.11
48517;BME280;34310;51.904;4.256;2023-02-12T02:15:47;103942.28;;;15.30;58.74
48517;BME280;34310;51.904;4.256;2023-02-12T02:18:27;103948.41;;;15.30;58.75
48517;BME280;34310;51.904;4.256;2023-02-12T02:24:26;103944.13;;;15.31;58.69
48517;BME280;34310;51.904;4.256;2023-02-12T02:27:15;103945.66;;;15.29;58.85
48517;BME280;34310;51.904;4.256;2023-02-12T02:32:53;103938.59;;;15.28;58.66
48517;BME280;34310;51.904;4.256;2023-02-12T02:35:34;103938.59;;;15.28;58.82
48517;BME280;34310;51.904;4.256;2023-02-12T02:41:07;103948.09;;;15.27;58.88
48517;BME280;34310;51.904;4.256;2023-02-12T02:43:39;103940.13;;;15.26;58.66
48517;BME280;34310;51.904;4.256;2023-02-12T02:46:33;103940.13;;;15.26;58.68
48517;BME280;34310;51.904;4.256;2023-02-12T02:52:11;103939.97;;;15.24;58.85
48517;BME280;34310;51.904;4.256;2023-02-12T02:54:44;103930.34;;;15.23;58.66
48517;BME280;34310;51.904;4.256;2023-02-12T02:57:28;103935.53;;;15.23;58.62
48517;BME280;34310;51.904;4.256;2023-02-12T03:00:12;103934.63;;;15.23;58.59
48517;BME280;34310;51.904;4.256;2023-02-12T03:02:44;103939.66;;;15.21;58.56
48517;BME280;34310;51.904;4.256;2023-02-12T03:05:21;103929.25;;;15.21;58.77
48517;BME280;34310;51.904;4.256;2023-02-12T03:08:00;103921.44;;;15.21;58.64
48517;BME280;34310;51.904;4.256;2023-02-12T03:10:35;103924.97;;;15.22;58.72
48517;BME280;34310;51.904;4.256;2023-02-12T03:13:10;103924.81;;;15.20;58.61
48517;BME280;34310;51.904;4.256;2023-02-12T03:15:50;103929.09;;;15.19;58.73
48517;BME280;34310;51.904;4.256;2023-02-12T03:18:38;103929.09;;;15.19;58.79
48517;BME280;34310;51.904;4.256;2023-02-12T03:21:14;103926.34;;;15.18;58.56
48517;BME280;34310;51.904;4.256;2023-02-12T03:23:55;103933.41;;;15.19;58.74
48517;BME280;34310;51.904;4.256;2023-02-12T03:26:32;103924.50;;;15.17;58.64
48517;BME280;34310;51.904;4.256;2023-02-12T03:29:02;103929.72;;;15.17;58.47
48517;BME280;34310;51.904;4.256;2023-02-12T03:35:02;103924.50;;;15.17;58.58
48517;BME280;34310;51.904;4.256;2023-02-12T03:37:40;103919.91;;;15.14;58.58
48517;BME280;34310;51.904;4.256;2023-02-12T03:40:19;103923.44;;;15.15;58.56
48517;BME280;34310;51.904;4.256;2023-02-12T03:43:03;103917.16;;;15.13;58.51
48517;BME280;34310;51.904;4.256;2023-02-12T03:51:41;103918.84;;;15.12;58.52
48517;BME280;34310;51.904;4.256;2023-02-12T03:54:13;103917.00;;;15.11;58.48
48517;BME280;34310;51.904;4.256;2023-02-12T03:59:23;103920.38;;;15.10;58.29
48517;BME280;34310;51.904;4.256;2023-02-12T04:01:52;103923.75;;;15.09;58.35
48517;BME280;34310;51.904;4.256;2023-02-12T04:04:20;103924.66;;;15.10;58.38
48517;BME280;34310;51.904;4.256;2023-02-12T04:06:49;103929.09;;;15.11;58.26
48517;BME280;34310;51.904;4.256;2023-02-12T04:09:18;103928.03;;;15.09;58.05
48517;BME280;34310;51.904;4.256;2023-02-12T04:17:14;103935.22;;;15.11;58.65
48517;BME280;34310;51.904;4.256;2023-02-12T04:22:42;103951.16;;;15.14;59.29
48517;BME280;34310;51.904;4.256;2023-02-12T04:31:10;103946.09;;;15.16;58.90
48517;BME280;34310;51.904;4.256;2023-02-12T04:33:43;103947.94;;;15.17;59.06
48517;BME280;34310;51.904;4.256;2023-02-12T04:36:24;103956.66;;;15.17;58.92
48517;BME280;34310;51.904;4.256;2023-02-12T04:39:02;103964.47;;;15.17;58.78
48517;BME280;34310;51.904;4.256;2023-02-12T04:41:31;103968.00;;;15.18;58.63
48517;BME280;34310;51.904;4.256;2023-02-12T04:44:11;103957.59;;;15.18;58.84
48517;BME280;34310;51.904;4.256;2023-02-12T04:46:39;103960.34;;;15.19;58.98
48517;BME280;34310;51.904;4.256;2023-02-12T04:49:08;103969.06;;;15.20;58.95
48517;BME280;34310;51.904;4.256;2023-02-12T04:51:39;103971.81;;;15.22;59.05
48517;BME280;34310;51.904;4.256;2023-02-12T04:54:06;103964.03;;;15.22;58.93
48517;BME280;34310;51.904;4.256;2023-02-12T04:56:33;103963.25;;;15.23;58.90
48517;BME280;34310;51.904;4.256;2023-02-12T04:59:01;103969.38;;;15.23;59.03
48517;BME280;34310;51.904;4.256;2023-02-12T05:01:28;103958.97;;;15.23;59.09
48517;BME280;34310;51.904;4.256;2023-02-12T05:03:57;103964.16;;;15.23;59.16
48517;BME280;34310;51.904;4.256;2023-02-12T05:06:24;103954.69;;;15.24;59.32
48517;BME280;34310;51.904;4.256;2023-02-12T05:08:52;103958.19;;;15.24;59.42
48517;BME280;34310;51.904;4.256;2023-02-12T05:11:20;103952.84;;;15.23;59.33
48517;BME280;34310;51.904;4.256;2023-02-12T05:13:51;103950.38;;;15.24;59.44
48517;BME280;34310;51.904;4.256;2023-02-12T05:16:20;103958.19;;;15.24;59.31
48517;BME280;34310;51.904;4.256;2023-02-12T05:18:47;103952.22;;;15.25;59.48
48517;BME280;34310;51.904;4.256;2023-02-12T05:21:15;103954.84;;;15.25;59.22
48517;BME280;34310;51.904;4.256;2023-02-12T05:23:43;103959.13;;;15.25;59.37
48517;BME280;34310;51.904;4.256;2023-02-12T05:26:16;103953.16;;;15.26;59.18
48517;BME280;34310;51.904;4.256;2023-02-12T05:28:43;103954.06;;;15.26;59.17
48517;BME280;34310;51.904;4.256;2023-02-12T05:31:13;103959.28;;;15.26;59.04
48517;BME280;34310;51.904;4.256;2023-02-12T05:33:46;103958.66;;;15.29;58.85
48517;BME280;34310;51.904;4.256;2023-02-12T05:36:18;103961.09;;;15.27;58.93
48517;BME280;34310;51.904;4.256;2023-02-12T05:38:46;103956.81;;;15.28;58.74
48517;BME280;34310;51.904;4.256;2023-02-12T05:41:17;103953.44;;;15.29;58.77
48517;BME280;34310;51.904;4.256;2023-02-12T05:43:45;103959.56;;;15.29;58.89
48517;BME280;34310;51.904;4.256;2023-02-12T05:46:17;103954.38;;;15.29;58.69
48517;BME280;34310;51.904;4.256;2023-02-12T05:48:44;103958.66;;;15.29;58.78
48517;BME280;34310;51.904;4.256;2023-02-12T05:51:15;103961.25;;;15.29;58.75
48517;BME280;34310;51.904;4.256;2023-02-12T05:53:43;103958.50;;;15.27;58.71
48517;BME280;34310;51.904;4.256;2023-02-12T05:56:14;103963.88;;;15.29;58.68
48517;BME280;34310;51.904;4.256;2023-02-12T05:58:44;103967.22;;;15.28;58.70
48517;BME280;34310;51.904;4.256;2023-02-12T06:01:18;103965.56;;;15.28;58.58
48517;BME280;34310;51.904;4.256;2023-02-12T06:03:46;103962.78;;;15.27;58.76
48517;BME280;34310;51.904;4.256;2023-02-12T06:06:14;103967.09;;;15.26;58.60
48517;BME280;34310;51.904;4.256;2023-02-12T06:08:42;103965.41;;;15.27;58.64
48517;BME280;34310;51.904;4.256;2023-02-12T06:11:13;103959.28;;;15.26;58.72
48517;BME280;34310;51.904;4.256;2023-02-12T06:13:41;103960.03;;;15.25;58.74
48517;BME280;34310;51.904;4.256;2023-02-12T06:16:17;103960.81;;;15.24;58.65
48517;BME280;34310;51.904;4.256;2023-02-12T06:18:45;103966.00;;;15.24;58.69
48517;BME280;34310;51.904;4.256;2023-02-12T06:21:14;103965.84;;;15.23;58.57
48517;BME280;34310;51.904;4.256;2023-02-12T06:23:42;103964.03;;;15.22;58.64
48517;BME280;34310;51.904;4.256;2023-02-12T06:26:09;103964.03;;;15.22;58.56
48517;BME280;34310;51.904;4.256;2023-02-12T06:28:37;103961.41;;;15.22;58.66
48517;BME280;34310;51.904;4.256;2023-02-12T06:31:04;103961.41;;;15.22;58.59
48517;BME280;34310;51.904;4.256;2023-02-12T06:33:32;103961.25;;;15.20;58.61
48517;BME280;34310;51.904;4.256;2023-02-12T06:36:02;103960.50;;;15.21;58.51
48517;BME280;34310;51.904;4.256;2023-02-12T06:38:30;103965.69;;;15.21;58.54
48517;BME280;34310;51.904;4.256;2023-02-12T06:41:03;103965.69;;;15.21;58.52
48517;BME280;34310;51.904;4.256;2023-02-12T06:43:31;103965.53;;;15.19;58.57
48517;BME280;34310;51.904;4.256;2023-02-12T06:46:01;103968.00;;;15.18;58.65
48517;BME280;34310;51.904;4.256;2023-02-12T06:48:47;103962.78;;;15.18;58.62
48517;BME280;34310;51.904;4.256;2023-02-12T06:51:17;103960.19;;;15.18;58.43
48517;BME280;34310;51.904;4.256;2023-02-12T06:53:44;103971.38;;;15.17;58.62
48517;BME280;34310;51.904;4.256;2023-02-12T06:56:12;103968.59;;;15.15;58.61
48517;BME280;34310;51.904;4.256;2023-02-12T06:58:42;103976.41;;;15.15;58.64
48517;BME280;34310;51.904;4.256;2023-02-12T07:01:14;103978.09;;;15.15;58.52
48517;BME280;34310;51.904;4.256;2023-02-12T07:03:48;103980.69;;;15.15;58.44
48517;BME280;34310;51.904;4.256;2023-02-12T07:06:16;103988.34;;;15.13;58.44
48517;BME280;34310;51.904;4.256;2023-02-12T07:08:44;103984.81;;;15.13;58.59
48517;BME280;34310;51.904;4.256;2023-02-12T07:11:11;103992.63;;;15.13;58.53
48517;BME280;34310;51.904;4.256;2023-02-12T07:13:43;103992.47;;;15.11;58.54
48517;BME280;34310;51.904;4.256;2023-02-12T07:16:13;103996.78;;;15.11;58.52
48517;BME280;34310;51.904;4.256;2023-02-12T07:18:42;103997.69;;;15.11;58.49
48517;BME280;34310;51.904;4.256;2023-02-12T07:21:11;103998.44;;;15.10;58.30
48517;BME280;34310;51.904;4.256;2023-02-12T07:23:39;104001.97;;;15.11;58.30
48517;BME280;34310;51.904;4.256;2023-02-12T07:26:12;104001.06;;;15.10;58.28
48517;BME280;34310;51.904;4.256;2023-02-12T07:28:39;103999.06;;;15.08;58.41
48517;BME280;34310;51.904;4.256;2023-02-12T07:31:08;104001.66;;;15.08;58.32
48517;BME280;34310;51.904;4.256;2023-02-12T07:33:37;104020.03;;;15.09;58.44
48517;BME280;34310;51.904;4.256;2023-02-12T07:36:07;104014.84;;;15.09;58.52
48517;BME280;34310;51.904;4.256;2023-02-12T07:38:34;104021.56;;;15.07;58.70
48517;BME280;34310;51.904;4.256;2023-02-12T07:41:49;104018.03;;;15.07;58.65
48517;BME280;34310;51.904;4.256;2023-02-12T07:44:02;104018.81;;;15.06;58.82
48517;BME280;34310;51.904;4.256;2023-02-12T07:46:35;104023.09;;;15.05;59.05
48517;BME280;34310;51.904;4.256;2023-02-12T07:49:05;104027.38;;;15.05;59.04
48517;BME280;34310;51.904;4.256;2023-02-12T07:51:33;104032.56;;;15.05;59.16
48517;BME280;34310;51.904;4.256;2023-02-12T07:54:01;104025.53;;;15.04;59.14
48517;BME280;34310;51.904;4.256;2023-02-12T07:56:32;104022.75;;;15.02;59.24
48517;BME280;34310;51.904;4.256;2023-02-12T07:59:06;104018.44;;;15.03;59.48
48517;BME280;34310;51.904;4.256;2023-02-12T08:01:39;104023.50;;;15.01;59.68
48517;BME280;34310;51.904;4.256;2023-02-12T08:04:09;104025.34;;;15.02;59.50
48517;BME280;34310;51.904;4.256;2023-02-12T08:06:39;104021.81;;;15.02;59.76
48517;BME280;34310;51.904;4.256;2023-02-12T08:09:09;104023.34;;;15.00;59.92
48517;BME280;34310;51.904;4.256;2023-02-12T08:11:38;104025.19;;;15.01;59.66
48517;BME280;34310;51.904;4.256;2023-02-12T08:14:06;104028.88;;;15.03;59.73
48517;BME280;34310;51.904;4.256;2023-02-12T08:16:39;104034.84;;;15.02;59.81
48517;BME280;34310;51.904;4.256;2023-02-12T08:19:07;104034.84;;;15.02;59.68
48517;BME280;34310;51.904;4.256;2023-02-12T08:21:47;104030.75;;;15.04;59.72
48517;BME280;34310;51.904;4.256;2023-02-12T08:24:15;104030.75;;;15.04;59.87
48517;BME280;34310;51.904;4.256;2023-02-12T08:26:42;104028.13;;;15.04;60.27
48517;BME280;34310;51.904;4.256;2023-02-12T08:29:16;104038.69;;;15.05;60.29
48517;BME280;34310;51.904;4.256;2023-02-12T08:31:45;104034.56;;;15.07;59.73
48517;BME280;34310;51.904;4.256;2023-02-12T08:34:23;104027.53;;;15.06;60.06
48517;BME280;34310;51.904;4.256;2023-02-12T08:36:51;104027.53;;;15.06;60.14
48517;BME280;34310;51.904;4.256;2023-02-12T08:39:24;104035.19;;;15.05;60.32
48517;BME280;34310;51.904;4.256;2023-02-12T08:41:54;104035.34;;;15.06;60.03
48517;BME280;34310;51.904;4.256;2023-02-12T08:44:22;104036.09;;;15.05;59.92
48517;BME280;34310;51.904;4.256;2023-02-12T08:46:51;104033.66;;;15.07;59.87
48517;BME280;34310;51.904;4.256;2023-02-12T08:49:29;104045.13;;;15.09;59.67
48517;BME280;34310;51.904;4.256;2023-02-12T08:51:57;104042.38;;;15.07;59.76
48517;BME280;34310;51.904;4.256;2023-02-12T08:54:27;104041.63;;;15.08;59.63
48517;BME280;34310;51.904;4.256;2023-02-12T08:56:59;104048.50;;;15.08;59.66
48517;BME280;34310;51.904;4.256;2023-02-12T08:59:28;104050.19;;;15.07;59.51
48517;BME280;34310;51.904;4.256;2023-02-12T09:01:55;104051.25;;;15.09;59.38
48517;BME280;34310;51.904;4.256;2023-02-12T09:04:24;104054.63;;;15.08;59.33
48517;BME280;34310;51.904;4.256;2023-02-12T09:06:52;104052.03;;;15.08;59.37
48517;BME280;34310;51.904;4.256;2023-02-12T09:09:20;104053.88;;;15.09;59.21
48517;BME280;34310;51.904;4.256;2023-02-12T09:11:48;104046.81;;;15.08;59.15
48517;BME280;34310;51.904;4.256;2023-02-12T09:14:17;104058.16;;;15.09;59.30
48517;BME280;34310;51.904;4.256;2023-02-12T09:16:50;104071.91;;;15.08;59.20
48517;BME280;34310;51.904;4.256;2023-02-12T09:19:19;104067.47;;;15.07;59.05
48517;BME280;34310;51.904;4.256;2023-02-12T09:21:53;104066.72;;;15.08;59.23
48517;BME280;34310;51.904;4.256;2023-02-12T09:24:25;104072.84;;;15.08;59.04
48517;BME280;34310;51.904;4.256;2023-02-12T09:26:54;104074.53;;;15.08;59.12
48517;BME280;34310;51.904;4.256;2023-02-12T09:29:21;104068.41;;;15.07;58.98
48517;BME280;34310;51.904;4.256;2023-02-12T09:31:48;104088.47;;;15.08;59.03
48517;BME280;34310;51.904;4.256;2023-02-12T09:34:16;104082.34;;;15.08;58.94
48517;BME280;34310;51.904;4.256;2023-02-12T09:36:44;104076.22;;;15.07;59.02
48517;BME280;34310;51.904;4.256;2023-02-12T09:39:11;104073.59;;;15.07;59.05
48517;BME280;34310;51.904;4.256;2023-02-12T09:42:13;104073.59;;;15.07;58.98
48517;BME280;34310;51.904;4.256;2023-02-12T09:45:31;104071.91;;;15.08;58.78
48517;BME280;34310;51.904;4.256;2023-02-12T09:47:43;104067.47;;;15.07;58.88
48517;BME280;34310;51.904;4.256;2023-02-12T09:53:03;104072.69;;;15.07;58.68
48517;BME280;34310;51.904;4.256;2023-02-12T09:55:32;104068.25;;;15.06;58.66
48517;BME280;34310;51.904;4.256;2023-02-12T09:58:03;104069.16;;;15.06;58.72
48517;BME280;34310;51.904;4.256;2023-02-12T10:00:31;104067.31;;;15.05;58.57
48517;BME280;34310;51.904;4.256;2023-02-12T10:03:01;104064.88;;;15.07;58.54
48517;BME280;34310;51.904;4.256;2023-02-12T10:05:36;104073.59;;;15.07;58.55
48517;BME280;34310;51.904;4.256;2023-02-12T10:10:52;104077.88;;;15.07;58.54
48517;BME280;34310;51.904;4.256;2023-02-12T10:16:35;104069.31;;;15.08;58.72
48517;BME280;34310;51.904;4.256;2023-02-12T10:27:21;104066.13;;;15.10;59.62
48517;BME280;34310;51.904;4.256;2023-02-12T10:29:52;104064.44;;;15.11;59.74
48517;BME280;34310;51.904;4.256;2023-02-12T10:32:26;104060.16;;;15.11;59.73
48517;BME280;34310;51.904;4.256;2023-02-12T10:34:56;104070.56;;;15.11;59.47
48517;BME280;34310;51.904;4.256;2023-02-12T10:40:17;104067.97;;;15.11;59.23
48517;BME280;34310;51.904;4.256;2023-02-12T10:42:48;104074.09;;;15.12;58.98
48517;BME280;34310;51.904;4.256;2023-02-12T10:45:30;104071.63;;;15.13;58.67
48517;BME280;34310;51.904;4.256;2023-02-12T10:48:50;104069.19;;;15.15;58.58
48517;BME280;34310;51.904;4.256;2023-02-12T10:53:34;104068.44;;;15.16;58.73
48517;BME280;34310;51.904;4.256;2023-02-12T11:01:36;104062.31;;;15.15;58.90
48517;BME280;34310;51.904;4.256;2023-02-12T11:04:26;104072.88;;;15.17;58.92
48517;BME280;34310;51.904;4.256;2023-02-12T11:06:59;104070.25;;;15.17;59.06
48517;BME280;34310;51.904;4.256;2023-02-12T11:09:36;104062.47;;;15.17;59.04
48517;BME280;34310;51.904;4.256;2023-02-12T11:14:57;104053.72;;;15.16;59.43
48517;BME280;34310;51.904;4.256;2023-02-12T11:17:37;104058.78;;;15.15;59.61
48517;BME280;34310;51.904;4.256;2023-02-12T11:25:18;104046.53;;;15.14;59.71
48517;BME280;34310;51.904;4.256;2023-02-12T11:30:26;104047.44;;;15.14;59.84
48517;BME280;34310;51.904;4.256;2023-02-12T11:32:53;104057.09;;;15.15;59.68
48517;BME280;34310;51.904;4.256;2023-02-12T11:35:23;104049.28;;;15.15;59.68
48517;BME280;34310;51.904;4.256;2023-02-12T11:38:01;104049.28;;;15.15;59.73
48517;BME280;34310;51.904;4.256;2023-02-12T11:40:30;104045.00;;;15.16;59.72
48517;BME280;34310;51.904;4.256;2023-02-12T11:43:04;104045.91;;;15.16;59.82
48517;BME280;34310;51.904;4.256;2023-02-12T11:45:36;104047.59;;;15.16;59.61
48517;BME280;34310;51.904;4.256;2023-02-12T11:50:51;104039.94;;;15.17;59.51
48517;BME280;34310;51.904;4.256;2023-02-12T11:53:25;104040.88;;;15.18;59.69
48517;BME280;34310;51.904;4.256;2023-02-12T11:55:59;104038.13;;;15.16;59.66
48517;BME280;34310;51.904;4.256;2023-02-12T11:58:29;104036.44;;;15.17;59.57
48517;BME280;34310;51.904;4.256;2023-02-12T12:01:19;104039.94;;;15.17;59.54
48517;BME280;34310;51.904;4.256;2023-02-12T12:04:04;104036.44;;;15.17;59.51
48517;BME280;34310;51.904;4.256;2023-02-12T12:06:37;104035.66;;;15.18;59.45
48517;BME280;34310;51.904;4.256;2023-02-12T12:09:20;104038.28;;;15.18;59.52
48517;BME280;34310;51.904;4.256;2023-02-12T12:12:12;104038.28;;;15.18;59.30
48517;BME280;34310;51.904;4.256;2023-02-12T12:14:52;104032.16;;;15.17;59.38
48517;BME280;34310;51.904;4.256;2023-02-12T12:20:53;104031.38;;;15.18;59.30
48517;BME280;34310;51.904;4.256;2023-02-12T12:23:37;104031.38;;;15.18;59.27
48517;BME280;34310;51.904;4.256;2023-02-12T12:26:20;104026.94;;;15.17;59.21
48517;BME280;34310;51.904;4.256;2023-02-12T12:29:25;104033.97;;;15.18;59.16
48517;BME280;34310;51.904;4.256;2023-02-12T12:32:00;104020.97;;;15.18;59.13
48517;BME280;34310;51.904;4.256;2023-02-12T12:34:28;104029.69;;;15.19;58.91
48517;BME280;34310;51.904;4.256;2023-02-12T12:56:20;104006.44;;;15.21;58.71
48517;BME280;34310;51.904;4.256;2023-02-12T12:59:24;104008.09;;;15.20;58.86
48517;BME280;34310;51.904;4.256;2023-02-12T13:05:00;103998.63;;;15.21;58.71
48517;BME280;34310;51.904;4.256;2023-02-12T13:13:35;103997.69;;;15.20;58.61
48517;BME280;34310;51.904;4.256;2023-02-12T13:27:04;103972.44;;;15.19;58.47
48517;BME280;34310;51.904;4.256;2023-02-12T13:32:17;103976.88;;;15.20;58.47
48517;BME280;34310;51.904;4.256;2023-02-12T13:34:46;103980.25;;;15.19;58.51
48517;BME280;34310;51.904;4.256;2023-02-12T13:37:32;103975.03;;;15.19;58.56
48517;BME280;34310;51.904;4.256;2023-02-12T13:40:04;103964.63;;;15.19;58.59
48517;BME280;34310;51.904;4.256;2023-02-12T13:56:43;103962.63;;;15.16;58.45
48517;BME280;34310;51.904;4.256;2023-02-12T14:02:03;103960.94;;;15.17;58.39
48517;BME280;34310;51.904;4.256;2023-02-12T14:07:14;103958.34;;;15.17;58.40
48517;BME280;34310;51.904;4.256;2023-02-12T14:12:29;103945.19;;;15.15;58.33
48517;BME280;34310;51.904;4.256;2023-02-12T14:18:05;103948.69;;;15.16;58.30
48517;BME280;34310;51.904;4.256;2023-02-12T14:20:39;103942.44;;;15.14;58.32
48517;BME280;34310;51.904;4.256;2023-02-12T14:23:26;103937.22;;;15.14;58.46
48517;BME280;34310;51.904;4.256;2023-02-12T14:26:02;103939.81;;;15.14;58.31
48517;BME280;34310;51.904;4.256;2023-02-12T14:28:52;103936.31;;;15.13;58.39
48517;BME280;34310;51.904;4.256;2023-02-12T14:47:10;103933.84;;;15.15;59.23
48517;BME280;34310;51.904;4.256;2023-02-12T14:49:44;103930.34;;;15.14;59.40
48517;BME280;34310;51.904;4.256;2023-02-12T14:52:15;103926.97;;;15.15;59.38
48517;BME280;34310;51.904;4.256;2023-02-12T14:54:58;103926.19;;;15.16;59.01
48517;BME280;34310;51.904;4.256;2023-02-12T15:00:20;103926.97;;;15.15;58.83
48517;BME280;34310;51.904;4.256;2023-02-12T15:08:07;103926.19;;;15.16;58.63
48517;BME280;34310;51.904;4.256;2023-02-12T15:10:49;103919.31;;;15.17;58.62
48517;BME280;34310;51.904;4.256;2023-02-12T15:15:53;103920.38;;;15.19;58.87
48517;BME280;34310;51.904;4.256;2023-02-12T15:18:49;103917.00;;;15.20;58.78
48517;BME280;34310;51.904;4.256;2023-02-12T15:21:19;103920.53;;;15.21;58.91
48517;BME280;34310;51.904;4.256;2023-02-12T15:24:01;103908.28;;;15.19;58.98
48517;BME280;34310;51.904;4.256;2023-02-12T15:26:32;103911.66;;;15.18;59.19
48517;BME280;34310;51.904;4.256;2023-02-12T15:29:00;103910.59;;;15.16;59.38
48517;BME280;34310;51.904;4.256;2023-02-12T15:31:30;103907.97;;;15.16;59.44
48517;BME280;34310;51.904;4.256;2023-02-12T15:34:01;103909.66;;;15.16;59.53
48517;BME280;34310;51.904;4.256;2023-02-12T15:36:31;103906.28;;;15.17;59.37
48517;BME280;34310;51.904;4.256;2023-02-12T15:39:05;103921.00;;;15.16;59.46
48517;BME280;34310;51.904;4.256;2023-02-12T15:41:39;103906.16;;;15.15;59.60
48517;BME280;34310;51.904;4.256;2023-02-12T15:44:28;103911.50;;;15.17;59.39
48517;BME280;34310;51.904;4.256;2023-02-12T15:46:58;103909.66;;;15.16;59.53
48517;BME280;34310;51.904;4.256;2023-02-12T15:49:34;103912.41;;;15.17;59.36
48517;BME280;34310;51.904;4.256;2023-02-12T15:52:08;103911.50;;;15.17;59.32
48517;BME280;34310;51.904;4.256;2023-02-12T15:54:37;103906.28;;;15.17;59.30
48517;BME280;34310;51.904;4.256;2023-02-12T15:57:20;103909.81;;;15.17;59.18
48517;BME280;34310;51.904;4.256;2023-02-12T15:59:56;103905.53;;;15.18;59.14
48517;BME280;34310;51.904;4.256;2023-02-12T16:02:29;103902.94;;;15.18;59.24
48517;BME280;34310;51.904;4.256;2023-02-12T16:04:58;103909.06;;;15.18;59.04
48517;BME280;34310;51.904;4.256;2023-02-12T16:07:30;103916.72;;;15.17;59.25
48517;BME280;34310;51.904;4.256;2023-02-12T16:10:01;103904.75;;;15.19;59.10
48517;BME280;34310;51.904;4.256;2023-02-12T16:12:32;103901.25;;;15.18;58.94
48517;BME280;34310;51.904;4.256;2023-02-12T16:15:00;103913.34;;;15.18;59.10
48517;BME280;34310;51.904;4.256;2023-02-12T16:17:34;103908.13;;;15.18;59.10
48517;BME280;34310;51.904;4.256;2023-02-12T16:22:48;103904.47;;;15.16;59.18